Řízení letového provozu České republiky  
Aktualizace dat:  09.12.2016 11:34:04 UTC English version
   METEO Zobrazení stránky:  09.12.2016 11:35:59 UTC  
vysvětlivky
METAR EDDB 091120Z 25013KT 9000 -DZ BKN006 08/07 Q1024 NOSIG=
METAR EDDC 091120Z 26011KT 220V310 7000 -DZ BKN008 07/06 Q1026 TEMPO BKN010=
METAR EDDE 091120Z 24008KT 9999 FEW012 BKN020 06/05 Q1028 TEMPO BKN013=
METAR EDDF 091120Z 21005KT 180V240 9999 BKN018 03/01 Q1032 NOSIG=
METAR EDDM 091120Z 26005KT CAVOK 07/M03 Q1032 NOSIG=
METAR COR EDDN 091120Z VRB02KT 9999 BKN023 05/01 Q1031 NOSIG=
METAR EDDP 091120Z 25017KT 9999 FEW010 BKN020 BKN043 08/05 Q1026 TEMPO 24015G25KT=
METAR EDDT 091120Z 27010KT 4000 BR BKN005 08/07 Q1023 TEMPO BKN004=
METAR EDQM 091120Z 21010KT 7000 BKN007 OVC019 03/00 Q1029=
METAR EPBY 091100Z 27017KT 9999 -DZ OVC005 06/05 Q1017 =
METAR EPGD 091100Z 28017G27KT 9999 SCT008 BKN010 08/06 Q1013 =
METAR EPKK 091100Z 26011KT 9999 FEW017 BKN023 07/M01 Q1022 =
METAR EPKT 091100Z 22011KT 4600 -RA BR FEW004 SCT008 BKN011 02/M01 Q1022 =
METAR EPLL 091100Z 24015KT 5000 -DZ BR OVC005 05/04 Q1019 =
METAR EPPO 091100Z 27014KT 4700 BR OVC003 06/06 Q1020 =
METAR EPRZ 091100Z 22014KT 9999 BKN023 03/M01 Q1021 R27/19//95 =
METAR EPWA 091100Z 27009KT 240V300 7000 OVC007 06/04 Q1017 TEMPO 5000 BR BKN005=
METAR EPWR 091100Z 28019KT 9999 BKN015 09/05 Q1023 =
METAR LHBP 091130Z 24005KT 210V310 5000 HZ NSC 03/M01 Q1028 BECMG 7000 NSW=
METAR LHSM 091115Z 18003KT 1300 BR OVC003 M02/M02 Q1030 BECMG 4000 BR BKN008=
METAR LKCV 091100Z VRB02KT 9999 OVC022 05/03 Q1027 NOSIG=
METAR LKKB 091100Z 23015KT 9999 FEW022 BKN040 BKN050 07/03 Q1027 NOSIG =
SPECI LKKU 091110Z 16003KT 5000 BR OVC025 M01/M02 Q1028=
METAR LKKV 091130Z 26008KT 230V300 5000 BR OVC006 02/02 Q1027 R29/290095 RMK REG QNH 1023=
METAR LKLN NIL
METAR LKMT 091130Z 22016KT 8000 NSC 03/M01 Q1025 NOSIG RMK REG QNH 1023=
METAR LKNA 091100Z 29010KT 9999 FEW016 BKN050 06/02 Q1027 NOSIG=
METAR LKPD 091100Z 08003KT 040V100 6000 -RA OVC021 02/M00 Q1027 NOSIG =
METAR LKPR 091130Z 24023KT 9999 BKN020 BKN048 07/03 Q1026 NOSIG RMK REG QNH 1023=
METAR LKTB 091130Z VRB01KT 5000 BR FEW004 BKN024 M01/M02 Q1028 NOSIG RMK REG QNH 1023=
METAR LKVO 091100Z 25010KT 200V270 9999 SCT022 BKN038 09/04 Q1027=
METAR LOWI 091120Z VRB02KT CAVOK 04/M06 Q1032 NOSIG=
METAR LOWL 091120Z 29008KT CAVOK 05/M02 Q1032 NOSIG=
METAR LOWS 091120Z 18003KT 140V210 9999 FEW080 SCT300 07/M03 Q1032 NOSIG=
METAR LOWW 091120Z 29016KT CAVOK 12/M03 Q1028 NOSIG=
METAR LZIB 091130Z 13005KT 4500 2000N BR FEW003 SCT048 BKN093 M01/M01 Q1029 R88/CLRD// NOSIG=
METAR LZKZ 091130Z 19005KT 2800 BR OVC005 M02/M03 Q1026 NOSIG=
METAR LZPP 091100Z VRB02KT 4000 BR SCT003 BKN040 BKN100 M01/M02 Q1029=
METAR LZSL 091100Z VRB01KT 5000 BR NSC 03/M02 Q1026=
METAR LZTT 091130Z 25015KT 220V280 CAVOK 06/M05 Q1022 NOSIG=
METAR LZZI 091100Z VRB01KT 3200 -FZRA BR OVC028 M02/M03 Q1028=